| time (UTC) | temp F | wind direction | speed knots | gust knots | rain 1hr in | rain 24hr in | rain mn in | humidity % | barometer mb |
| 20260504173505 | 62 | 305 | 2.6 | 7.0 | 0.00 | 0.00 | 0.00 | 46 | 1019.4 |
| 20260504173005 | 61 | 305 | 2.6 | 7.0 | 0.00 | 0.00 | 0.00 | 46 | 1019.4 |
| 20260504172505 | 61 | 305 | 2.6 | 7.0 | 0.00 | 0.00 | 0.00 | 48 | 1019.3 |
| 20260504172004 | 60 | 305 | 2.6 | 7.0 | 0.00 | 0.00 | 0.00 | 47 | 1019.3 |
| 20260504171505 | 60 | 305 | 2.6 | 7.0 | 0.00 | 0.00 | 0.00 | 48 | 1019.3 |
| 20260504171004 | 60 | 305 | 2.6 | 7.0 | 0.00 | 0.00 | 0.00 | 47 | 1019.2 |
| 20260504170504 | 60 | 305 | 2.6 | 7.0 | 0.00 | 0.00 | 0.00 | 47 | 1019.3 |
| 20260504150504 | 54 | 305 | 2.6 | 7.0 | 0.00 | 0.00 | 0.00 | 50 | 1018.7 |
| 20260504141004 | 53 | 305 | 2.6 | 7.0 | 0.00 | 0.00 | 0.00 | 50 | 1018.7 |
| 20260504140505 | 53 | 305 | 2.6 | 7.0 | 0.00 | 0.00 | 0.00 | 50 | 1018.7 |
| 20260504130504 | 50 | 305 | 2.6 | 7.0 | 0.00 | 0.00 | 0.00 | 52 | 1018.4 |
| 20260504110505 | 45 | 305 | 2.6 | 7.0 | 0.00 | 0.00 | 0.00 | 58 | 1018.0 |
| 20260504100504 | 42 | 305 | 2.6 | 7.0 | 0.00 | 0.00 | 0.00 | 60 | 1017.7 |
| 20260504081505 | 43 | 305 | 2.6 | 7.0 | 0.00 | 0.00 | 0.00 | 58 | 1017.8 |
| 20260504081004 | 43 | 305 | 2.6 | 7.0 | 0.00 | 0.00 | 0.00 | 58 | 1017.8 |
| 20260504080504 | 44 | 305 | 2.6 | 7.0 | 0.00 | 0.00 | 0.00 | 58 | 1017.8 |
| 20260504050504 | 44 | 305 | 2.6 | 7.0 | 0.00 | 0.00 | 0.00 | 59 | 1017.8 |
| 20260504050005 | 44 | 305 | 2.6 | 7.0 | 0.00 | 0.00 | 0.00 | 59 | 1017.8 |
| 20260504045504 | 44 | 305 | 2.6 | 7.0 | 0.00 | 0.00 | 0.00 | 59 | 1017.9 |
| 20260504045004 | 44 | 305 | 2.6 | 7.0 | 0.00 | 0.00 | 0.00 | 59 | 1017.8 |
| 20260504044505 | 44 | 305 | 2.6 | 7.0 | 0.00 | 0.00 | 0.00 | 59 | 1017.9 |
| 20260504044005 | 44 | 305 | 2.6 | 7.0 | 0.00 | 0.00 | 0.00 | 59 | 1017.9 |
| 20260504043505 | 44 | 305 | 2.6 | 7.0 | 0.00 | 0.00 | 0.00 | 59 | 1017.9 |
| 20260504043004 | 44 | 305 | 2.6 | 7.0 | 0.00 | 0.00 | 0.00 | 58 | 1017.9 |
| 20260504042504 | 44 | 305 | 2.6 | 7.0 | 0.00 | 0.00 | 0.00 | 59 | 1017.9 |
| 20260504042005 | 44 | 305 | 2.6 | 7.0 | 0.00 | 0.00 | 0.00 | 59 | 1017.8 |
| 20260504041504 | 44 | 305 | 2.6 | 7.0 | 0.00 | 0.00 | 0.00 | 59 | 1017.8 |
| 20260504041004 | 43 | 305 | 2.6 | 7.0 | 0.00 | 0.00 | 0.00 | 59 | 1017.8 |
| 20260504040505 | 43 | 305 | 2.6 | 7.0 | 0.00 | 0.00 | 0.00 | 60 | 1017.8 |
| 20260504040004 | 43 | 305 | 2.6 | 7.0 | 0.00 | 0.00 | 0.00 | 60 | 1017.7 |
| 20260504035505 | 43 | 305 | 2.6 | 7.0 | 0.00 | 0.00 | 0.00 | 60 | 1017.8 |
| 20260504035005 | 43 | 305 | 2.6 | 7.0 | 0.00 | 0.00 | 0.00 | 60 | 1017.8 |
| 20260504034504 | 43 | 305 | 2.6 | 7.0 | 0.00 | 0.00 | 0.00 | 60 | 1017.8 |
| 20260504034004 | 43 | 305 | 2.6 | 7.0 | 0.00 | 0.00 | 0.00 | 60 | 1017.7 |
| 20260504033505 | 43 | 305 | 2.6 | 7.0 | 0.00 | 0.00 | 0.00 | 60 | 1017.8 |
| 20260504033005 | 43 | 305 | 2.6 | 7.0 | 0.00 | 0.00 | 0.00 | 61 | 1017.8 |
| 20260504032504 | 43 | 305 | 2.6 | 7.0 | 0.00 | 0.00 | 0.00 | 59 | 1017.8 |
| 20260504032005 | 43 | 305 | 2.6 | 7.0 | 0.00 | 0.00 | 0.00 | 59 | 1017.8 |
| 20260504031504 | 43 | 305 | 2.6 | 7.0 | 0.00 | 0.00 | 0.00 | 59 | 1017.8 |
| 20260504031004 | 42 | 305 | 2.6 | 7.0 | 0.00 | 0.00 | 0.00 | 60 | 1017.7 |
| 20260504030504 | 42 | 305 | 2.6 | 7.0 | 0.00 | 0.00 | 0.00 | 60 | 1017.7 |
| 20260504030005 | 42 | 305 | 2.6 | 7.0 | 0.00 | 0.00 | 0.00 | 61 | 1017.7 |
| 20260504025504 | 42 | 305 | 2.6 | 7.0 | 0.00 | 0.00 | 0.00 | 61 | 1017.6 |
| 20260504024504 | 42 | 305 | 2.6 | 7.0 | 0.00 | 0.00 | 0.00 | 60 | 1017.7 |
| 20260504023504 | 42 | 305 | 2.6 | 7.0 | 0.00 | 0.00 | 0.00 | 61 | 1017.6 |
| 20260504022504 | 42 | 305 | 2.6 | 7.0 | 0.00 | 0.00 | 0.00 | 60 | 1017.7 |
| 20260504021504 | 42 | 305 | 2.6 | 7.0 | 0.00 | 0.00 | 0.00 | 60 | 1017.6 |
| 20260504021004 | 42 | 305 | 2.6 | 7.0 | 0.00 | 0.00 | 0.00 | 60 | 1017.6 |
| 20260504020504 | 42 | 305 | 2.6 | 7.0 | 0.00 | 0.00 | 0.00 | 60 | 1017.6 |
| 20260504020005 | 42 | 305 | 2.6 | 7.0 | 0.00 | 0.00 | 0.00 | 60 | 1017.7 |
| 20260504015504 | 43 | 305 | 2.6 | 7.0 | 0.00 | 0.00 | 0.00 | 60 | 1017.7 |
| 20260504014004 | 43 | 305 | 2.6 | 7.0 | 0.00 | 0.00 | 0.00 | 59 | 1017.7 |
| 20260504013005 | 43 | 305 | 2.6 | 7.0 | 0.00 | 0.00 | 0.00 | 59 | 1017.8 |
| 20260504012504 | 43 | 305 | 2.6 | 7.0 | 0.00 | 0.00 | 0.00 | 59 | 1017.7 |
| 20260504012005 | 43 | 305 | 2.6 | 7.0 | 0.00 | 0.00 | 0.00 | 60 | 1017.7 |
| 20260504011004 | 43 | 305 | 2.6 | 7.0 | 0.00 | 0.00 | 0.00 | 60 | 1017.7 |
| 20260504010504 | 42 | 305 | 2.6 | 7.0 | 0.00 | 0.00 | 0.00 | 60 | 1017.7 |
| 20260504005504 | 43 | 305 | 2.6 | 7.0 | 0.00 | 0.00 | 0.00 | 60 | 1017.7 |
| 20260504005005 | 43 | 305 | 2.6 | 7.0 | 0.00 | 0.00 | 0.00 | 59 | 1017.7 |
| 20260504004005 | 43 | 305 | 2.6 | 7.0 | 0.00 | 0.00 | 0.00 | 59 | 1017.7 |
| 20260504003504 | 43 | 305 | 2.6 | 7.0 | 0.00 | 0.00 | 0.00 | 59 | 1017.7 |
| 20260504003004 | 43 | 305 | 2.6 | 7.0 | 0.00 | 0.00 | 0.00 | 59 | 1017.7 |
| 20260504002504 | 43 | 305 | 2.6 | 7.0 | 0.00 | 0.00 | 0.00 | 59 | 1017.8 |
| 20260504002004 | 44 | 305 | 2.6 | 7.0 | 0.00 | 0.00 | 0.00 | 58 | 1017.8 |
| 20260504001005 | 44 | 305 | 2.6 | 7.0 | 0.00 | 0.00 | 0.00 | 58 | 1017.8 |
| 20260504000504 | 44 | 305 | 2.6 | 7.0 | 0.00 | 0.00 | 0.00 | 57 | 1017.8 |
| 20260504000004 | 44 | 305 | 2.6 | 7.0 | 0.00 | 0.00 | 0.00 | 57 | 1017.8 |
| 20260503235504 | 44 | 305 | 2.6 | 7.0 | 0.00 | 0.00 | 0.00 | 56 | 1017.9 |
| 20260503235004 | 45 | 305 | 2.6 | 7.0 | 0.00 | 0.00 | 0.00 | 56 | 1017.9 |
| 20260503234504 | 45 | 305 | 2.6 | 7.0 | 0.00 | 0.00 | 0.00 | 56 | 1017.9 |
| 20260503233504 | 45 | 305 | 2.6 | 7.0 | 0.00 | 0.00 | 0.00 | 56 | 1017.9 |
| 20260503233004 | 45 | 305 | 2.6 | 7.0 | 0.00 | 0.00 | 0.00 | 55 | 1017.9 |
| 20260503232504 | 45 | 305 | 2.6 | 7.0 | 0.00 | 0.00 | 0.00 | 55 | 1017.9 |
| 20260503232004 | 46 | 305 | 2.6 | 7.0 | 0.00 | 0.00 | 0.00 | 54 | 1018.0 |
| 20260503231504 | 46 | 305 | 2.6 | 7.0 | 0.00 | 0.00 | 0.00 | 53 | 1018.0 |
| 20260503231004 | 46 | 305 | 2.6 | 7.0 | 0.00 | 0.00 | 0.00 | 53 | 1018.0 |
| 20260503230504 | 46 | 305 | 2.6 | 7.0 | 0.00 | 0.00 | 0.00 | 52 | 1018.0 |
| 20260503230004 | 46 | 305 | 2.6 | 7.0 | 0.00 | 0.00 | 0.00 | 52 | 1018.0 |
| 20260503225504 | 46 | 305 | 2.6 | 7.0 | 0.00 | 0.00 | 0.00 | 52 | 1018.0 |
| 20260503225004 | 46 | 305 | 2.6 | 7.0 | 0.00 | 0.00 | 0.00 | 51 | 1018.0 |
| 20260503224505 | 46 | 305 | 2.6 | 7.0 | 0.00 | 0.00 | 0.00 | 50 | 1018.0 |
| 20260503224004 | 46 | 305 | 2.6 | 7.0 | 0.00 | 0.00 | 0.00 | 50 | 1018.0 |
| 20260503223505 | 46 | 305 | 2.6 | 7.0 | 0.00 | 0.00 | 0.00 | 49 | 1018.0 |
| 20260503222505 | 46 | 305 | 2.6 | 7.0 | 0.00 | 0.00 | 0.00 | 48 | 1018.0 |
| 20260503221504 | 47 | 305 | 2.6 | 7.0 | 0.00 | 0.00 | 0.00 | 47 | 1018.1 |
| 20260503221004 | 47 | 305 | 2.6 | 7.0 | 0.00 | 0.00 | 0.00 | 47 | 1018.1 |
| 20260503220504 | 47 | 305 | 2.6 | 7.0 | 0.00 | 0.00 | 0.00 | 46 | 1018.1 |
| 20260503220004 | 47 | 305 | 2.6 | 7.0 | 0.00 | 0.00 | 0.00 | 45 | 1018.1 |
| 20260503215504 | 47 | 305 | 2.6 | 7.0 | 0.00 | 0.00 | 0.00 | 44 | 1018.1 |
| 20260503215004 | 47 | 305 | 2.6 | 7.0 | 0.00 | 0.00 | 0.00 | 44 | 1018.1 |
| 20260503214005 | 48 | 305 | 2.6 | 7.0 | 0.00 | 0.00 | 0.00 | 44 | 1018.2 |
| 20260503213504 | 48 | 305 | 2.6 | 7.0 | 0.00 | 0.00 | 0.00 | 43 | 1018.2 |
| 20260503213005 | 47 | 305 | 2.6 | 7.0 | 0.00 | 0.00 | 0.00 | 43 | 1018.2 |
| 20260503212005 | 47 | 305 | 2.6 | 7.0 | 0.00 | 0.00 | 0.00 | 43 | 1018.1 |
| 20260503211504 | 47 | 305 | 2.6 | 7.0 | 0.00 | 0.00 | 0.00 | 42 | 1018.1 |
| 20260503210504 | 48 | 305 | 2.6 | 7.0 | 0.00 | 0.00 | 0.00 | 41 | 1018.1 |
| 20260503210006 | 48 | 305 | 2.6 | 7.0 | 0.00 | 0.00 | 0.00 | 41 | 1018.3 |
| 20260503205504 | 48 | 305 | 2.6 | 7.0 | 0.00 | 0.00 | 0.00 | 41 | 1018.3 |
| 20260503205004 | 48 | 305 | 2.6 | 7.0 | 0.00 | 0.00 | 0.00 | 41 | 1018.3 |
| 20260503204504 | 48 | 305 | 2.6 | 7.0 | 0.00 | 0.00 | 0.00 | 40 | 1018.3 |
| 20260503204004 | 48 | 305 | 2.6 | 7.0 | 0.00 | 0.00 | 0.00 | 41 | 1018.3 |
| 20260503203505 | 49 | 305 | 2.6 | 7.0 | 0.00 | 0.00 | 0.00 | 40 | 1018.3 |
| 20260503203004 | 49 | 305 | 2.6 | 7.0 | 0.00 | 0.00 | 0.00 | 41 | 1018.3 |
| 20260503202504 | 48 | 305 | 2.6 | 7.0 | 0.00 | 0.00 | 0.00 | 41 | 1018.3 |
| 20260503201504 | 48 | 305 | 2.6 | 7.0 | 0.00 | 0.00 | 0.00 | 42 | 1018.3 |
| 20260503201004 | 49 | 305 | 2.6 | 7.0 | 0.00 | 0.00 | 0.00 | 42 | 1018.3 |
| 20260503200504 | 49 | 305 | 2.6 | 7.0 | 0.00 | 0.00 | 0.00 | 42 | 1018.4 |
| 20260503200004 | 48 | 305 | 2.6 | 7.0 | 0.00 | 0.00 | 0.00 | 42 | 1018.3 |
| 20260503195504 | 48 | 305 | 2.6 | 7.0 | 0.00 | 0.00 | 0.00 | 43 | 1018.2 |
| 20260503195004 | 48 | 305 | 2.6 | 7.0 | 0.00 | 0.00 | 0.00 | 42 | 1018.2 |
| 20260503194505 | 47 | 305 | 2.6 | 7.0 | 0.00 | 0.00 | 0.00 | 44 | 1018.3 |
| 20260503194004 | 47 | 305 | 2.6 | 7.0 | 0.00 | 0.00 | 0.00 | 45 | 1018.2 |
| 20260503193004 | 47 | 305 | 2.6 | 7.0 | 0.00 | 0.00 | 0.00 | 44 | 1018.2 |
| 20260503192504 | 47 | 305 | 2.6 | 7.0 | 0.00 | 0.00 | 0.00 | 45 | 1018.1 |
| 20260503192004 | 47 | 305 | 2.6 | 7.0 | 0.00 | 0.00 | 0.00 | 45 | 1018.2 |
| 20260503191504 | 47 | 305 | 2.6 | 7.0 | 0.00 | 0.00 | 0.00 | 45 | 1018.2 |
| 20260503191005 | 47 | 305 | 2.6 | 7.0 | 0.00 | 0.00 | 0.00 | 45 | 1018.2 |
| 20260503190504 | 46 | 305 | 2.6 | 7.0 | 0.00 | 0.00 | 0.00 | 44 | 1018.2 |
| 20260503190004 | 46 | 305 | 2.6 | 7.0 | 0.00 | 0.00 | 0.00 | 45 | 1018.1 |
| 20260503185504 | 46 | 305 | 2.6 | 7.0 | 0.00 | 0.00 | 0.00 | 45 | 1018.1 |
| 20260503185004 | 46 | 305 | 2.6 | 7.0 | 0.00 | 0.00 | 0.00 | 45 | 1018.1 |
| 20260503184504 | 45 | 305 | 2.6 | 7.0 | 0.00 | 0.00 | 0.00 | 46 | 1018.1 |
| 20260503184005 | 45 | 305 | 2.6 | 7.0 | 0.00 | 0.00 | 0.00 | 46 | 1018.0 |
| 20260503183504 | 45 | 305 | 2.6 | 7.0 | 0.00 | 0.00 | 0.00 | 46 | 1018.0 |
| 20260503183004 | 45 | 305 | 2.6 | 7.0 | 0.00 | 0.00 | 0.00 | 47 | 1018.0 |
| 20260503182505 | 45 | 305 | 2.6 | 7.0 | 0.00 | 0.00 | 0.00 | 47 | 1018.1 |
| 20260503182005 | 45 | 305 | 2.6 | 7.0 | 0.00 | 0.00 | 0.00 | 46 | 1018.0 |
| 20260503181505 | 45 | 305 | 2.6 | 7.0 | 0.00 | 0.00 | 0.00 | 47 | 1018.0 |
| 20260503180504 | 44 | 305 | 2.6 | 7.0 | 0.00 | 0.00 | 0.00 | 48 | 1018.0 |
| 20260503180005 | 44 | 305 | 2.6 | 7.0 | 0.00 | 0.00 | 0.00 | 49 | 1017.9 |
| 20260503175005 | 42 | 305 | 2.6 | 7.0 | 0.00 | 0.00 | 0.00 | 50 | 1017.9 |
| 20260503174504 | 42 | 305 | 2.6 | 7.0 | 0.00 | 0.00 | 0.00 | 50 | 1017.8 |
| 20260503174004 | 42 | 305 | 2.6 | 7.0 | 0.00 | 0.00 | 0.00 | 50 | 1017.8 |